createdAt,value
2017-06-11T00:00:53.450Z,1006.8
2017-06-11T00:01:53.489Z,1006.81
2017-06-11T00:02:53.528Z,1006.77
2017-06-11T00:03:53.589Z,1006.81
2017-06-11T00:04:53.608Z,1006.81
2017-06-11T00:05:53.672Z,1006.8
2017-06-11T00:06:53.690Z,1006.85
2017-06-11T00:07:53.728Z,1006.83
2017-06-11T00:08:53.770Z,1006.85
2017-06-11T00:09:53.810Z,1006.81
2017-06-11T00:10:53.849Z,1006.82
2017-06-11T00:11:53.888Z,1006.82
2017-06-11T00:12:53.933Z,1006.84
2017-06-11T00:13:53.969Z,1006.82
2017-06-11T00:14:54.011Z,1006.84
2017-06-11T00:15:54.048Z,1006.81
2017-06-11T00:16:54.090Z,1006.82
2017-06-11T00:17:54.130Z,1006.81
2017-06-11T00:18:54.170Z,1006.79
2017-06-11T00:19:54.210Z,1006.82
2017-06-11T00:20:54.251Z,1006.77
2017-06-11T00:21:54.290Z,1006.79
2017-06-11T00:22:54.329Z,1006.81
2017-06-11T00:23:54.370Z,1006.82
2017-06-11T00:24:54.410Z,1006.82
2017-06-11T00:25:54.450Z,1006.84
2017-06-11T00:26:54.491Z,1006.82
2017-06-11T00:27:54.529Z,1006.84
2017-06-11T00:28:54.570Z,1006.83
2017-06-11T00:29:54.610Z,1006.84
2017-06-11T00:30:54.649Z,1006.8
2017-06-11T00:31:54.691Z,1006.8
2017-06-11T00:32:54.729Z,1006.75
2017-06-11T00:33:54.770Z,1006.76
2017-06-11T00:34:54.812Z,1006.74
2017-06-11T00:35:54.850Z,1006.71
2017-06-11T00:36:54.889Z,1006.72
2017-06-11T00:37:54.929Z,1006.7
2017-06-11T00:38:54.971Z,1006.73
2017-06-11T00:39:55.010Z,1006.72
2017-06-11T00:40:55.052Z,1006.72
2017-06-11T00:41:55.090Z,1006.73
2017-06-11T00:42:55.132Z,1006.74
2017-06-11T00:43:55.170Z,1006.71
2017-06-11T00:44:55.209Z,1006.69
2017-06-11T00:45:55.249Z,1006.7
2017-06-11T00:46:55.289Z,1006.67
2017-06-11T00:47:55.329Z,1006.69
2017-06-11T00:48:55.370Z,1006.69
2017-06-11T00:49:55.439Z,1006.72
2017-06-11T00:50:55.450Z,1006.74
2017-06-11T00:51:55.489Z,1006.69
2017-06-11T00:52:55.528Z,1006.67
2017-06-11T00:53:55.573Z,1006.7
2017-06-11T00:54:55.609Z,1006.71
2017-06-11T00:55:55.648Z,1006.69
2017-06-11T00:56:55.689Z,1006.69
2017-06-11T00:57:55.728Z,1006.69
2017-06-11T00:58:55.770Z,1006.72
2017-06-11T00:59:55.807Z,1006.68
2017-06-11T01:00:55.848Z,1006.7
2017-06-11T01:01:55.888Z,1006.71
2017-06-11T01:02:55.927Z,1006.72
2017-06-11T01:03:55.969Z,1006.68
2017-06-11T01:04:56.030Z,1006.68
2017-06-11T01:05:56.048Z,1006.66
2017-06-11T01:06:56.086Z,1006.67
2017-06-11T01:07:56.128Z,1006.68
2017-06-11T01:08:56.169Z,1006.67
2017-06-11T01:09:56.206Z,1006.64
2017-06-11T01:10:56.246Z,1006.63
2017-06-11T01:11:56.288Z,1006.64
2017-06-11T01:12:56.328Z,1006.63
2017-06-11T01:13:56.368Z,1006.65
2017-06-11T01:14:56.407Z,1006.61
2017-06-11T01:15:56.448Z,1006.61
2017-06-11T01:16:56.487Z,1006.61
2017-06-11T01:17:56.527Z,1006.59
2017-06-11T01:18:56.571Z,1006.57
2017-06-11T01:19:56.607Z,1006.54
2017-06-11T01:20:56.645Z,1006.55
2017-06-11T01:21:56.686Z,1006.54
2017-06-11T01:22:56.724Z,1006.51
2017-06-11T01:23:56.762Z,1006.54
2017-06-11T01:24:56.805Z,1006.56
2017-06-11T01:25:56.844Z,1006.52
2017-06-11T01:26:56.885Z,1006.53
2017-06-11T01:27:56.925Z,1006.53
2017-06-11T01:28:56.964Z,1006.55
2017-06-11T01:29:57.003Z,1006.54
2017-06-11T01:30:57.043Z,1006.53
2017-06-11T01:31:57.083Z,1006.54
2017-06-11T01:32:57.123Z,1006.57
2017-06-11T01:33:57.160Z,1006.53
2017-06-11T01:34:57.200Z,1006.57
2017-06-11T01:35:57.241Z,1006.58
2017-06-11T01:36:57.281Z,1006.58
2017-06-11T01:37:57.320Z,1006.55
2017-06-11T01:38:57.358Z,1006.59
2017-06-11T01:39:57.398Z,1006.58
2017-06-11T01:40:57.437Z,1006.56
2017-06-11T01:41:57.477Z,1006.53
2017-06-11T01:42:57.517Z,1006.52
2017-06-11T01:43:57.566Z,1006.56
2017-06-11T01:44:57.598Z,1006.56
2017-06-11T01:45:57.636Z,1006.55
2017-06-11T01:46:57.676Z,1006.57
2017-06-11T01:47:57.725Z,1006.57
2017-06-11T01:48:57.755Z,1006.54
2017-06-11T01:49:57.792Z,1006.55
2017-06-11T01:50:57.834Z,1006.56
2017-06-11T01:51:57.872Z,1006.56
2017-06-11T01:52:57.913Z,1006.54
2017-06-11T01:53:57.950Z,1006.58
2017-06-11T01:54:57.990Z,1006.59
2017-06-11T01:55:58.030Z,1006.57
2017-06-11T01:56:58.068Z,1006.54
2017-06-11T01:57:58.108Z,1006.55
2017-06-11T01:58:58.149Z,1006.53
2017-06-11T01:59:58.187Z,1006.51
2017-06-11T02:00:58.226Z,1006.56
2017-06-11T02:01:58.267Z,1006.57
2017-06-11T02:02:58.306Z,1006.55
2017-06-11T02:03:58.347Z,1006.6
2017-06-11T02:04:58.385Z,1006.52
2017-06-11T02:05:58.424Z,1006.56
2017-06-11T02:06:58.462Z,1006.58
2017-06-11T02:07:58.503Z,1006.54
2017-06-11T02:08:58.542Z,1006.54
2017-06-11T02:09:58.582Z,1006.54
2017-06-11T02:10:58.622Z,1006.56
2017-06-11T02:11:58.660Z,1006.62
2017-06-11T02:12:58.705Z,1006.59
2017-06-11T02:13:58.739Z,1006.61
2017-06-11T02:14:58.777Z,1006.63
2017-06-11T02:15:58.818Z,1006.66
2017-06-11T02:16:58.856Z,1006.64
2017-06-11T02:17:58.896Z,1006.64
2017-06-11T02:18:58.935Z,1006.67
2017-06-11T02:19:58.973Z,1006.67
2017-06-11T02:20:59.014Z,1006.64
2017-06-11T02:21:59.054Z,1006.68
2017-06-11T02:22:59.091Z,1006.69
2017-06-11T02:23:59.133Z,1006.67
2017-06-11T02:24:59.171Z,1006.66
2017-06-11T02:25:59.211Z,1006.64
2017-06-11T02:26:59.249Z,1006.68
2017-06-11T02:27:59.288Z,1006.64
2017-06-11T02:28:59.327Z,1006.66
2017-06-11T02:29:59.366Z,1006.66
2017-06-11T02:30:59.407Z,1006.68
2017-06-11T02:31:59.445Z,1006.65
2017-06-11T02:32:59.487Z,1006.65
2017-06-11T02:33:59.522Z,1006.64
2017-06-11T02:34:59.594Z,1006.66
2017-06-11T02:35:59.603Z,1006.64
2017-06-11T02:36:59.643Z,1006.66
2017-06-11T02:37:59.682Z,1006.67
2017-06-11T02:38:59.719Z,1006.7
2017-06-11T02:39:59.759Z,1006.66
2017-06-11T02:40:59.798Z,1006.68
2017-06-11T02:41:59.838Z,1006.66
2017-06-11T02:42:59.876Z,1006.7
2017-06-11T02:43:59.918Z,1006.68
2017-06-11T02:44:59.954Z,1006.69
2017-06-11T02:45:59.994Z,1006.7
2017-06-11T02:47:00.034Z,1006.66
2017-06-11T02:48:00.074Z,1006.69
2017-06-11T02:49:00.113Z,1006.69
2017-06-11T02:50:00.153Z,1006.69
2017-06-11T02:51:00.191Z,1006.69
2017-06-11T02:52:00.230Z,1006.68
2017-06-11T02:53:00.270Z,1006.68
2017-06-11T02:54:00.309Z,1006.67
2017-06-11T02:55:00.349Z,1006.67
2017-06-11T02:56:00.388Z,1006.69
2017-06-11T02:57:00.426Z,1006.69
2017-06-11T02:58:00.465Z,1006.68
2017-06-11T02:59:00.506Z,1006.68
2017-06-11T03:00:00.543Z,1006.68
2017-06-11T03:01:00.582Z,1006.68
2017-06-11T03:02:00.623Z,1006.65
2017-06-11T03:03:00.663Z,1006.65
2017-06-11T03:04:00.700Z,1006.61
2017-06-11T03:05:00.739Z,1006.67
2017-06-11T03:06:00.779Z,1006.64
2017-06-11T03:07:00.820Z,1006.64
2017-06-11T03:08:00.857Z,1006.64
2017-06-11T03:09:00.895Z,1006.62
2017-06-11T03:10:00.935Z,1006.63
2017-06-11T03:11:00.974Z,1006.62
2017-06-11T03:12:01.013Z,1006.59
2017-06-11T03:13:01.054Z,1006.6
2017-06-11T03:14:01.091Z,1006.58
2017-06-11T03:15:01.130Z,1006.63
2017-06-11T03:16:01.170Z,1006.58
2017-06-11T03:17:01.208Z,1006.58
2017-06-11T03:18:01.248Z,1006.59
2017-06-11T03:19:01.287Z,1006.61
2017-06-11T03:20:01.326Z,1006.59
2017-06-11T03:21:01.364Z,1006.61
2017-06-11T03:22:01.405Z,1006.59
2017-06-11T03:23:01.444Z,1006.58
2017-06-11T03:24:01.483Z,1006.6
2017-06-11T03:25:01.523Z,1006.6
2017-06-11T03:26:01.563Z,1006.65
2017-06-11T03:27:01.601Z,1006.66
2017-06-11T03:28:01.640Z,1006.64
2017-06-11T03:29:01.680Z,1006.65
2017-06-11T03:30:01.723Z,1006.6
2017-06-11T03:31:01.761Z,1006.6
2017-06-11T03:32:01.802Z,1006.62
2017-06-11T03:33:01.842Z,1006.63
2017-06-11T03:34:01.882Z,1006.66
2017-06-11T03:35:01.923Z,1006.59
2017-06-11T03:36:01.960Z,1006.6
2017-06-11T03:37:02.003Z,1006.62
2017-06-11T03:38:02.043Z,1006.6
2017-06-11T03:39:02.085Z,1006.61
2017-06-11T03:40:02.125Z,1006.64
2017-06-11T03:41:02.165Z,1006.66
2017-06-11T03:42:02.206Z,1006.61
2017-06-11T03:43:02.248Z,1006.66
2017-06-11T03:44:02.289Z,1006.68
2017-06-11T03:45:02.331Z,1006.66
2017-06-11T03:46:02.371Z,1006.63
2017-06-11T03:47:02.413Z,1006.67
2017-06-11T03:48:02.454Z,1006.68
2017-06-11T03:49:02.501Z,1006.71
2017-06-11T03:50:02.538Z,1006.73
2017-06-11T03:51:02.579Z,1006.74
2017-06-11T03:52:02.622Z,1006.76
2017-06-11T03:53:02.665Z,1006.8
2017-06-11T03:54:02.705Z,1006.81
2017-06-11T03:55:02.748Z,1006.8
2017-06-11T03:56:02.792Z,1006.81
2017-06-11T03:57:02.834Z,1006.78
2017-06-11T03:58:02.878Z,1006.78
2017-06-11T03:59:02.922Z,1006.8
2017-06-11T04:00:02.968Z,1006.76
2017-06-11T04:01:03.006Z,1006.76
2017-06-11T04:02:03.050Z,1006.77
2017-06-11T04:03:03.093Z,1006.73
2017-06-11T04:04:03.135Z,1006.73
2017-06-11T04:05:03.180Z,1006.81
2017-06-11T04:06:03.224Z,1006.79
2017-06-11T04:07:03.266Z,1006.8
2017-06-11T04:08:03.328Z,1006.8
2017-06-11T04:09:03.355Z,1006.78
2017-06-11T04:10:03.399Z,1006.75
2017-06-11T04:11:03.445Z,1006.73
2017-06-11T04:12:03.489Z,1006.74
2017-06-11T04:13:03.530Z,1006.73
2017-06-11T04:14:03.576Z,1006.71
2017-06-11T04:15:03.622Z,1006.68
2017-06-11T04:16:03.666Z,1006.64
2017-06-11T04:17:03.710Z,1006.64
2017-06-11T04:18:03.768Z,1006.66
2017-06-11T04:19:03.802Z,1006.68
2017-06-11T04:20:03.846Z,1006.67
2017-06-11T04:21:03.891Z,1006.67
2017-06-11T04:22:03.939Z,1006.7
2017-06-11T04:23:03.987Z,1006.7
2017-06-11T04:24:04.029Z,1006.73
2017-06-11T04:25:04.076Z,1006.72
2017-06-11T04:26:04.122Z,1006.71
2017-06-11T04:27:04.166Z,1006.7
2017-06-11T04:28:04.213Z,1006.71
2017-06-11T04:29:04.258Z,1006.74
2017-06-11T04:30:04.307Z,1006.78
2017-06-11T04:31:04.352Z,1006.8
2017-06-11T04:32:04.396Z,1006.8
2017-06-11T04:33:04.444Z,1006.83
2017-06-11T04:34:04.490Z,1006.82
2017-06-11T04:35:04.537Z,1006.83
2017-06-11T04:36:04.583Z,1006.8
2017-06-11T04:37:04.630Z,1006.8
2017-06-11T04:38:04.677Z,1006.82
2017-06-11T04:39:04.723Z,1006.85
2017-06-11T04:40:04.772Z,1006.77
2017-06-11T04:41:04.815Z,1006.77
2017-06-11T04:42:04.863Z,1006.75
2017-06-11T04:43:04.931Z,1006.74
2017-06-11T04:44:04.957Z,1006.75
2017-06-11T04:45:04.997Z,1006.79
2017-06-11T04:46:05.044Z,1006.81
2017-06-11T04:47:05.089Z,1006.79
2017-06-11T04:48:05.134Z,1006.82
2017-06-11T04:49:05.181Z,1006.78
2017-06-11T04:50:05.226Z,1006.8
2017-06-11T04:51:05.271Z,1006.83
2017-06-11T04:52:05.317Z,1006.83
2017-06-11T04:53:05.361Z,1006.82
2017-06-11T04:54:05.407Z,1006.84
2017-06-11T04:55:05.453Z,1006.8
2017-06-11T04:56:05.499Z,1006.78
2017-06-11T04:57:05.545Z,1006.8
2017-06-11T04:58:05.591Z,1006.74
2017-06-11T04:59:05.634Z,1006.73
2017-06-11T05:00:05.679Z,1006.75
2017-06-11T05:01:05.725Z,1006.73
2017-06-11T05:02:05.770Z,1006.67
2017-06-11T05:03:05.814Z,1006.7
2017-06-11T05:04:05.858Z,1006.73
2017-06-11T05:05:05.901Z,1006.68
2017-06-11T05:06:05.946Z,1006.62
2017-06-11T05:07:06.016Z,1006.67
2017-06-11T05:08:06.033Z,1006.67
2017-06-11T05:09:06.077Z,1006.71
2017-06-11T05:10:06.121Z,1006.69
2017-06-11T05:11:06.164Z,1006.69
2017-06-11T05:12:06.209Z,1006.71
2017-06-11T05:13:06.254Z,1006.7
2017-06-11T05:14:06.297Z,1006.64
2017-06-11T05:15:06.340Z,1006.6
2017-06-11T05:16:06.383Z,1006.59
2017-06-11T05:17:06.428Z,1006.59
2017-06-11T05:18:06.469Z,1006.53
2017-06-11T05:19:06.512Z,1006.52
2017-06-11T05:20:06.557Z,1006.61
2017-06-11T05:21:06.600Z,1006.6
2017-06-11T05:22:06.642Z,1006.57
2017-06-11T05:23:06.685Z,1006.59
2017-06-11T05:24:06.727Z,1006.6
2017-06-11T05:25:06.772Z,1006.61
2017-06-11T05:26:06.813Z,1006.62
2017-06-11T05:27:06.856Z,1006.59
2017-06-11T05:28:06.898Z,1006.6
2017-06-11T05:29:06.940Z,1006.68
2017-06-11T05:30:06.983Z,1006.63
2017-06-11T05:31:07.025Z,1006.65
2017-06-11T05:32:07.068Z,1006.69
2017-06-11T05:33:07.109Z,1006.71
2017-06-11T05:34:07.150Z,1006.73
2017-06-11T05:35:07.193Z,1006.79
2017-06-11T05:36:07.236Z,1006.85
2017-06-11T05:37:07.277Z,1006.9
2017-06-11T05:38:07.320Z,1006.88
2017-06-11T05:39:07.361Z,1006.87
2017-06-11T05:40:07.405Z,1006.89
2017-06-11T05:41:07.448Z,1006.92
2017-06-11T05:42:07.490Z,1006.94
2017-06-11T05:43:07.536Z,1006.96
2017-06-11T05:44:07.579Z,1006.96
2017-06-11T05:45:07.624Z,1006.99
2017-06-11T05:46:07.670Z,1006.96
2017-06-11T05:47:07.718Z,1006.98
2017-06-11T05:48:07.762Z,1006.99
2017-06-11T05:49:07.809Z,1006.97
2017-06-11T05:50:07.858Z,1007.02
2017-06-11T05:51:07.905Z,1007.03
2017-06-11T05:52:07.954Z,1007.03
2017-06-11T05:53:08.003Z,1007.03
2017-06-11T05:54:08.065Z,1007.02
2017-06-11T05:55:08.108Z,1007.04
2017-06-11T05:56:08.151Z,1007.03
2017-06-11T05:57:08.249Z,1007.07
2017-06-11T05:58:08.254Z,1007.05
2017-06-11T05:59:08.306Z,1007.08
2017-06-11T06:00:08.356Z,1007.07
2017-06-11T06:01:08.410Z,1007.04
2017-06-11T06:02:08.459Z,1007.06
2017-06-11T06:03:08.511Z,1007.07
2017-06-11T06:04:08.567Z,1007.05
2017-06-11T06:05:08.616Z,1007.05
2017-06-11T06:06:08.668Z,1007.13
2017-06-11T06:07:08.724Z,1007.08
2017-06-11T06:08:08.776Z,1007.08
2017-06-11T06:09:08.828Z,1007.08
2017-06-11T06:10:08.883Z,1007.06
2017-06-11T06:11:08.937Z,1007.09
2017-06-11T06:12:08.992Z,1007.06
2017-06-11T06:13:09.044Z,1007.08
2017-06-11T06:14:09.100Z,1007.05
2017-06-11T06:15:09.154Z,1007.05
2017-06-11T06:16:09.209Z,1007.09
2017-06-11T06:17:09.263Z,1007.04
2017-06-11T06:18:09.319Z,1007.01
2017-06-11T06:19:09.374Z,1006.99
2017-06-11T06:20:09.480Z,1007.01
2017-06-11T06:21:09.486Z,1007
2017-06-11T06:22:09.539Z,1007.07
2017-06-11T06:23:09.597Z,1007.06
2017-06-11T06:24:09.652Z,1007.06
2017-06-11T06:25:09.707Z,1007.06
2017-06-11T06:26:09.764Z,1007.07
2017-06-11T06:27:09.821Z,1007.06
2017-06-11T06:28:09.876Z,1007.05
2017-06-11T06:29:09.932Z,1007.06
2017-06-11T06:30:09.989Z,1007.04
2017-06-11T06:31:10.044Z,1007.04
2017-06-11T06:32:10.101Z,1007.03
2017-06-11T06:33:10.158Z,1007.03
2017-06-11T06:34:10.213Z,1007.06
2017-06-11T06:35:10.270Z,1007.07
2017-06-11T06:36:10.328Z,1006.98
2017-06-11T06:37:10.385Z,1007.02
2017-06-11T06:38:10.442Z,1007.04
2017-06-11T06:39:10.498Z,1007.01
2017-06-11T06:40:10.554Z,1007
2017-06-11T06:41:10.614Z,1007.05
2017-06-11T06:42:10.667Z,1007.05
2017-06-11T06:43:10.729Z,1007.05
2017-06-11T06:44:10.784Z,1007.05
2017-06-11T06:45:10.842Z,1006.97
2017-06-11T06:46:10.899Z,1006.98
2017-06-11T06:47:10.958Z,1006.98
2017-06-11T06:48:11.015Z,1007.03
2017-06-11T06:49:11.071Z,1006.98
2017-06-11T06:50:11.130Z,1007
2017-06-11T06:51:11.188Z,1006.99
2017-06-11T06:52:11.246Z,1007.02
2017-06-11T06:53:11.301Z,1006.96
2017-06-11T06:54:11.364Z,1006.99
2017-06-11T06:55:11.418Z,1006.98
2017-06-11T06:56:11.476Z,1007.01
2017-06-11T06:57:11.533Z,1006.99
2017-06-11T06:58:11.594Z,1006.99
2017-06-11T06:59:11.654Z,1006.98
2017-06-11T07:00:11.710Z,1007.01
2017-06-11T07:01:11.767Z,1007.02
2017-06-11T07:02:11.832Z,1007
2017-06-11T07:03:11.885Z,1006.99
2017-06-11T07:04:11.951Z,1007.01
2017-06-11T07:05:12.024Z,1006.96
2017-06-11T07:06:12.060Z,1006.96
2017-06-11T07:07:12.142Z,1007
2017-06-11T07:08:12.178Z,1006.94
2017-06-11T07:09:12.235Z,1006.97
2017-06-11T07:10:12.294Z,1006.96
2017-06-11T07:11:12.355Z,1006.94
2017-06-11T07:12:12.412Z,1006.93
2017-06-11T07:13:12.471Z,1006.94
2017-06-11T07:14:12.532Z,1006.98
2017-06-11T07:15:12.591Z,1006.98
2017-06-11T07:16:12.649Z,1006.98
2017-06-11T07:17:12.710Z,1006.92
2017-06-11T07:18:12.768Z,1006.87
2017-06-11T07:19:12.827Z,1006.86
2017-06-11T07:20:12.888Z,1006.86
2017-06-11T07:21:12.946Z,1006.9
2017-06-11T07:22:13.005Z,1006.92
2017-06-11T07:23:13.067Z,1006.86
2017-06-11T07:24:13.124Z,1006.82
2017-06-11T07:25:13.184Z,1006.89
2017-06-11T07:26:13.243Z,1006.85
2017-06-11T07:27:13.305Z,1006.89
2017-06-11T07:28:13.370Z,1006.84
2017-06-11T07:29:13.425Z,1006.89
2017-06-11T07:30:13.484Z,1006.86
2017-06-11T07:31:13.544Z,1006.86
2017-06-11T07:32:13.605Z,1006.85
2017-06-11T07:33:13.665Z,1006.88
2017-06-11T07:34:13.754Z,1006.87
2017-06-11T07:35:13.786Z,1006.86
2017-06-11T07:36:13.845Z,1006.88
2017-06-11T07:37:13.905Z,1006.87
2017-06-11T07:38:13.989Z,1006.88
2017-06-11T07:39:14.026Z,1006.84
2017-06-11T07:40:14.084Z,1006.82
2017-06-11T07:41:14.145Z,1006.83
2017-06-11T07:42:14.205Z,1006.8
2017-06-11T07:43:14.264Z,1006.8
2017-06-11T07:44:14.324Z,1006.75
2017-06-11T07:45:14.385Z,1006.76
2017-06-11T07:46:14.446Z,1006.79
2017-06-11T07:47:14.507Z,1006.77
2017-06-11T07:48:14.568Z,1006.75
2017-06-11T07:49:14.626Z,1006.73
2017-06-11T07:50:14.688Z,1006.74
2017-06-11T07:51:14.748Z,1006.75
2017-06-11T07:52:14.808Z,1006.74
2017-06-11T07:53:14.868Z,1006.75
2017-06-11T07:54:14.929Z,1006.74
2017-06-11T07:55:15.115Z,1006.73
2017-06-11T07:56:15.049Z,1006.74
2017-06-11T07:57:15.109Z,1006.74
2017-06-11T07:58:15.171Z,1006.74
2017-06-11T07:59:15.229Z,1006.73
2017-06-11T08:00:15.289Z,1006.72
2017-06-11T08:01:15.352Z,1006.73
2017-06-11T08:02:15.839Z,1006.71
2017-06-11T08:03:15.470Z,1006.72
2017-06-11T08:04:15.530Z,1006.72
2017-06-11T08:05:15.597Z,1006.72
2017-06-11T08:06:15.651Z,1006.75
2017-06-11T08:07:15.712Z,1006.77
2017-06-11T08:08:15.774Z,1006.76
2017-06-11T08:09:15.834Z,1006.76
2017-06-11T08:10:15.908Z,1006.73
2017-06-11T08:11:15.955Z,1006.73
2017-06-11T08:12:16.015Z,1006.73
2017-06-11T08:13:16.077Z,1006.74
2017-06-11T08:14:16.137Z,1006.74
2017-06-11T08:15:16.197Z,1006.76
2017-06-11T08:16:16.257Z,1006.79
2017-06-11T08:17:16.317Z,1006.76
2017-06-11T08:18:16.379Z,1006.74
2017-06-11T08:19:16.438Z,1006.76
2017-06-11T08:20:16.498Z,1006.74
2017-06-11T08:21:16.799Z,1006.74
2017-06-11T08:22:16.619Z,1006.76
2017-06-11T08:23:16.679Z,1006.75
2017-06-11T08:24:16.740Z,1006.76
2017-06-11T08:25:16.800Z,1006.78
2017-06-11T08:26:16.861Z,1006.73
2017-06-11T08:27:16.922Z,1006.76
2017-06-11T08:28:16.982Z,1006.76
2017-06-11T08:29:17.042Z,1006.75
2017-06-11T08:30:17.101Z,1006.77
2017-06-11T08:31:17.163Z,1006.76
2017-06-11T08:32:17.221Z,1006.76
2017-06-11T08:33:17.282Z,1006.79
2017-06-11T08:34:17.344Z,1006.76
2017-06-11T08:35:17.405Z,1006.74
2017-06-11T08:36:17.493Z,1006.76
2017-06-11T08:37:17.524Z,1006.76
2017-06-11T08:38:17.585Z,1006.73
2017-06-11T08:39:17.645Z,1006.73
2017-06-11T08:40:17.705Z,1006.71
2017-06-11T08:41:17.773Z,1006.69
2017-06-11T08:42:17.826Z,1006.7
2017-06-11T08:43:17.893Z,1006.71
2017-06-11T08:44:17.946Z,1006.72
2017-06-11T08:45:18.013Z,1006.72
2017-06-11T08:46:18.066Z,1006.74
2017-06-11T08:47:18.126Z,1006.74
2017-06-11T08:48:18.187Z,1006.73
2017-06-11T08:49:18.247Z,1006.71
2017-06-11T08:50:18.310Z,1006.7
2017-06-11T08:51:18.367Z,1006.72
2017-06-11T08:52:18.426Z,1006.72
2017-06-11T08:53:18.488Z,1006.7
2017-06-11T08:54:18.547Z,1006.7
2017-06-11T08:55:18.609Z,1006.7
2017-06-11T08:56:18.669Z,1006.7
2017-06-11T08:57:18.728Z,1006.65
2017-06-11T08:58:18.788Z,1006.67
2017-06-11T08:59:18.848Z,1006.66
2017-06-11T09:00:18.911Z,1006.65
2017-06-11T09:01:18.969Z,1006.66
2017-06-11T09:02:19.030Z,1006.65
2017-06-11T09:03:19.091Z,1006.59
2017-06-11T09:04:19.151Z,1006.59
2017-06-11T09:05:19.210Z,1006.57
2017-06-11T09:06:19.270Z,1006.59
2017-06-11T09:07:19.331Z,1006.55
2017-06-11T09:08:19.391Z,1006.54
2017-06-11T09:09:19.454Z,1006.59
2017-06-11T09:10:19.512Z,1006.57
2017-06-11T09:11:19.574Z,1006.52
2017-06-11T09:12:19.632Z,1006.51
2017-06-11T09:13:19.694Z,1006.48
2017-06-11T09:14:19.753Z,1006.41
2017-06-11T09:15:19.815Z,1006.47
2017-06-11T09:16:19.875Z,1006.46
2017-06-11T09:17:19.998Z,1006.43
2017-06-11T09:18:19.995Z,1006.44
2017-06-11T09:19:20.054Z,1006.4
2017-06-11T09:20:20.115Z,1006.43
2017-06-11T09:21:20.209Z,1006.41
2017-06-11T09:22:20.239Z,1006.4
2017-06-11T09:23:20.300Z,1006.42
2017-06-11T09:24:20.357Z,1006.42
2017-06-11T09:25:20.418Z,1006.43
2017-06-11T09:26:20.477Z,1006.38
2017-06-11T09:27:20.537Z,1006.39
2017-06-11T09:28:20.598Z,1006.3
2017-06-11T09:29:20.659Z,1006.33
2017-06-11T09:30:20.717Z,1006.33
2017-06-11T09:31:20.778Z,1006.32
2017-06-11T09:32:20.838Z,1006.35
2017-06-11T09:33:20.901Z,1006.3
2017-06-11T09:34:20.960Z,1006.32
2017-06-11T09:35:21.021Z,1006.33
2017-06-11T09:36:21.081Z,1006.32
2017-06-11T09:37:21.141Z,1006.27
2017-06-11T09:38:21.202Z,1006.32
2017-06-11T09:39:21.262Z,1006.27
2017-06-11T09:40:21.322Z,1006.23
2017-06-11T09:41:21.382Z,1006.29
2017-06-11T09:42:23.245Z,1006.26
2017-06-11T09:43:21.503Z,1006.25
2017-06-11T09:44:22.843Z,1006.28
2017-06-11T09:45:21.625Z,1006.22
2017-06-11T09:46:21.685Z,1006.21
2017-06-11T09:47:21.991Z,1006.17
2017-06-11T09:48:21.807Z,1006.21
2017-06-11T09:49:21.868Z,1006.22
2017-06-11T09:50:21.928Z,1006.2
2017-06-11T09:51:21.990Z,1006.17
2017-06-11T09:52:22.050Z,1006.21
2017-06-11T09:53:22.112Z,1006.23
2017-06-11T09:54:22.173Z,1006.22
2017-06-11T09:55:22.235Z,1006.22
2017-06-11T09:56:22.297Z,1006.18
2017-06-11T09:57:22.365Z,1006.17
2017-06-11T09:58:22.417Z,1006.1
2017-06-11T09:59:22.479Z,1006.09
2017-06-11T10:00:23.504Z,1006.12
2017-06-11T10:01:22.605Z,1006.13
2017-06-11T10:02:23.524Z,1006.11
2017-06-11T10:03:22.721Z,1006.15
2017-06-11T10:04:22.785Z,1006.13
2017-06-11T10:05:22.844Z,1006.15
2017-06-11T10:06:22.906Z,1006.11
2017-06-11T10:07:22.965Z,1006.12
2017-06-11T10:08:23.026Z,1006.12
2017-06-11T10:09:23.088Z,1006.1
2017-06-11T10:10:24.317Z,1006.09
2017-06-11T10:11:23.209Z,1006.09
2017-06-11T10:12:25.124Z,1006.09
2017-06-11T10:13:23.332Z,1006.06
2017-06-11T10:14:25.227Z,1006.08
2017-06-11T10:15:23.452Z,1006.1
2017-06-11T10:16:23.815Z,1006.14
2017-06-11T10:17:24.996Z,1006.05
2017-06-11T10:18:23.635Z,1006.05
2017-06-11T10:19:23.696Z,1006.05
2017-06-11T10:20:23.757Z,1006.03
2017-06-11T10:21:24.469Z,1005.96
2017-06-11T10:22:23.879Z,1005.95
2017-06-11T10:23:23.939Z,1005.95
2017-06-11T10:24:24.000Z,1005.98
2017-06-11T10:25:24.060Z,1005.94
2017-06-11T10:26:24.119Z,1005.92
2017-06-11T10:27:24.180Z,1005.91
2017-06-11T10:28:24.255Z,1005.9
2017-06-11T10:29:24.302Z,1005.88
2017-06-11T10:30:24.365Z,1005.89
2017-06-11T10:31:24.424Z,1005.89
2017-06-11T10:32:24.486Z,1005.86
2017-06-11T10:33:24.544Z,1005.9
2017-06-11T10:34:24.610Z,1005.84
2017-06-11T10:35:24.668Z,1005.84
2017-06-11T10:36:24.726Z,1005.75
2017-06-11T10:37:24.793Z,1005.83
2017-06-11T10:38:24.848Z,1005.79
2017-06-11T10:39:24.909Z,1005.76
2017-06-11T10:40:24.970Z,1005.72
2017-06-11T10:41:25.030Z,1005.63
2017-06-11T10:42:25.092Z,1005.62
2017-06-11T10:43:25.153Z,1005.63
2017-06-11T10:44:25.212Z,1005.6
2017-06-11T10:45:25.274Z,1005.56
2017-06-11T10:46:25.336Z,1005.6
2017-06-11T10:47:25.396Z,1005.57
2017-06-11T10:48:25.455Z,1005.55
2017-06-11T10:49:25.517Z,1005.5
2017-06-11T10:50:25.579Z,1005.53
2017-06-11T10:51:25.637Z,1005.54
2017-06-11T10:52:25.698Z,1005.53
2017-06-11T10:53:25.759Z,1005.45
2017-06-11T10:54:25.816Z,1005.37
2017-06-11T10:55:25.880Z,1005.36
2017-06-11T10:56:25.936Z,1005.43
2017-06-11T10:57:25.996Z,1005.46
2017-06-11T10:58:26.053Z,1005.47
2017-06-11T10:59:26.112Z,1005.42
2017-06-11T11:00:26.172Z,1005.4
2017-06-11T11:01:26.231Z,1005.36
2017-06-11T11:02:26.287Z,1005.31
2017-06-11T11:03:26.343Z,1005.33
2017-06-11T11:04:26.408Z,1005.29
2017-06-11T11:05:26.456Z,1005.19
2017-06-11T11:06:26.514Z,1005.14
2017-06-11T11:07:26.569Z,1005.3
2017-06-11T11:08:26.625Z,1005.15
2017-06-11T11:09:26.680Z,1005.14
2017-06-11T11:10:26.736Z,1005.03
2017-06-11T11:11:26.789Z,1005
2017-06-11T11:12:26.844Z,1004.96
2017-06-11T11:13:26.895Z,1005.02
2017-06-11T11:14:26.951Z,1005
2017-06-11T11:15:27.004Z,1005
2017-06-11T11:16:27.055Z,1004.96
2017-06-11T11:17:27.109Z,1004.9
2017-06-11T11:18:27.161Z,1004.92
2017-06-11T11:19:27.216Z,1004.86
2017-06-11T11:20:27.265Z,1004.92
2017-06-11T11:21:27.315Z,1004.85
2017-06-11T11:22:27.369Z,1004.86
2017-06-11T11:23:27.421Z,1004.86
2017-06-11T11:24:27.471Z,1004.81
2017-06-11T11:25:27.522Z,1004.82
2017-06-11T11:26:27.575Z,1004.74
2017-06-11T11:27:27.623Z,1004.74
2017-06-11T11:28:27.673Z,1004.74
2017-06-11T11:29:27.724Z,1004.71
2017-06-11T11:30:27.774Z,1004.67
2017-06-11T11:31:27.823Z,1004.71
2017-06-11T11:32:27.875Z,1004.74
2017-06-11T11:33:27.923Z,1004.66
2017-06-11T11:34:27.973Z,1004.58
2017-06-11T11:35:28.022Z,1004.57
2017-06-11T11:36:28.074Z,1004.58
2017-06-11T11:37:28.127Z,1004.57
2017-06-11T11:38:28.172Z,1004.54
2017-06-11T11:39:28.220Z,1004.54
2017-06-11T11:40:28.271Z,1004.56
2017-06-11T11:41:28.319Z,1004.53
2017-06-11T11:42:28.369Z,1004.51
2017-06-11T11:43:28.416Z,1004.47
2017-06-11T11:44:28.465Z,1004.48
2017-06-11T11:45:28.515Z,1004.43
2017-06-11T11:46:28.562Z,1004.4
2017-06-11T11:47:28.612Z,1004.41
2017-06-11T11:48:28.661Z,1004.34
2017-06-11T11:49:28.709Z,1004.33
2017-06-11T11:50:28.758Z,1004.3
2017-06-11T11:51:28.805Z,1004.3
2017-06-11T11:52:28.854Z,1004.27
2017-06-11T11:53:28.904Z,1004.23
2017-06-11T11:54:28.954Z,1004.24
2017-06-11T11:55:29.000Z,1004.24
2017-06-11T11:56:29.050Z,1004.25
2017-06-11T11:57:29.095Z,1004.25
2017-06-11T11:58:29.145Z,1004.22
2017-06-11T11:59:29.193Z,1004.19
2017-06-11T12:00:29.240Z,1004.23
2017-06-11T12:01:29.289Z,1004.18
2017-06-11T12:02:29.336Z,1004.22
2017-06-11T12:03:29.385Z,1004.25
2017-06-11T12:04:29.432Z,1004.23
2017-06-11T12:05:29.481Z,1004.23
2017-06-11T12:06:29.531Z,1004.22
2017-06-11T12:07:29.577Z,1004.17
2017-06-11T12:08:29.625Z,1004.18
2017-06-11T12:09:29.673Z,1004.12